sensor_id;sensor_type;location;lat;lon;timestamp;P1;durP1;ratioP1;P2;durP2;ratioP2
11998;SDS011;40817;51.520;9.954;2023-04-09T00:01:56;25.85;;;13.73;;
11998;SDS011;40817;51.520;9.954;2023-04-09T00:04:24;25.90;;;13.35;;
11998;SDS011;40817;51.520;9.954;2023-04-09T00:06:53;22.33;;;12.55;;
11998;SDS011;40817;51.520;9.954;2023-04-09T00:09:21;23.45;;;13.50;;
11998;SDS011;40817;51.520;9.954;2023-04-09T00:11:48;22.90;;;13.05;;
11998;SDS011;40817;51.520;9.954;2023-04-09T00:14:16;24.08;;;12.85;;
11998;SDS011;40817;51.520;9.954;2023-04-09T00:16:43;22.50;;;13.43;;
11998;SDS011;40817;51.520;9.954;2023-04-09T00:19:11;25.88;;;15.35;;
11998;SDS011;40817;51.520;9.954;2023-04-09T00:21:39;26.88;;;14.55;;
11998;SDS011;40817;51.520;9.954;2023-04-09T00:24:08;25.15;;;14.10;;
11998;SDS011;40817;51.520;9.954;2023-04-09T00:26:35;26.98;;;14.77;;
11998;SDS011;40817;51.520;9.954;2023-04-09T00:29:03;23.90;;;13.45;;
11998;SDS011;40817;51.520;9.954;2023-04-09T00:31:31;27.20;;;15.70;;
11998;SDS011;40817;51.520;9.954;2023-04-09T00:33:58;26.42;;;14.93;;
11998;SDS011;40817;51.520;9.954;2023-04-09T00:36:26;27.40;;;14.88;;
11998;SDS011;40817;51.520;9.954;2023-04-09T00:38:54;27.83;;;14.75;;
11998;SDS011;40817;51.520;9.954;2023-04-09T00:41:24;26.35;;;15.65;;
11998;SDS011;40817;51.520;9.954;2023-04-09T00:43:52;26.42;;;15.02;;
11998;SDS011;40817;51.520;9.954;2023-04-09T00:46:22;24.23;;;15.05;;
11998;SDS011;40817;51.520;9.954;2023-04-09T00:48:50;26.80;;;14.75;;
11998;SDS011;40817;51.520;9.954;2023-04-09T00:51:18;27.05;;;15.95;;
11998;SDS011;40817;51.520;9.954;2023-04-09T00:53:46;27.55;;;15.05;;
11998;SDS011;40817;51.520;9.954;2023-04-09T00:56:14;26.30;;;15.13;;
11998;SDS011;40817;51.520;9.954;2023-04-09T00:58:45;25.15;;;14.75;;
11998;SDS011;40817;51.520;9.954;2023-04-09T01:01:13;23.88;;;13.75;;
11998;SDS011;40817;51.520;9.954;2023-04-09T01:03:40;24.10;;;14.32;;
11998;SDS011;40817;51.520;9.954;2023-04-09T01:06:09;22.92;;;14.02;;
11998;SDS011;40817;51.520;9.954;2023-04-09T01:08:46;26.70;;;15.07;;
11998;SDS011;40817;51.520;9.954;2023-04-09T01:11:26;25.95;;;15.10;;
11998;SDS011;40817;51.520;9.954;2023-04-09T01:14:13;28.25;;;16.38;;
11998;SDS011;40817;51.520;9.954;2023-04-09T01:16:54;29.92;;;17.48;;
11998;SDS011;40817;51.520;9.954;2023-04-09T01:19:41;29.30;;;17.17;;
11998;SDS011;40817;51.520;9.954;2023-04-09T01:22:21;32.17;;;17.42;;
11998;SDS011;40817;51.520;9.954;2023-04-09T01:25:08;31.33;;;17.17;;
11998;SDS011;40817;51.520;9.954;2023-04-09T01:30:51;32.63;;;17.42;;
11998;SDS011;40817;51.520;9.954;2023-04-09T01:33:27;31.42;;;18.08;;
11998;SDS011;40817;51.520;9.954;2023-04-09T01:35:58;32.33;;;17.85;;
11998;SDS011;40817;51.520;9.954;2023-04-09T01:38:27;31.33;;;17.25;;
11998;SDS011;40817;51.520;9.954;2023-04-09T01:40:55;33.90;;;17.52;;
11998;SDS011;40817;51.520;9.954;2023-04-09T01:43:26;32.90;;;17.77;;
11998;SDS011;40817;51.520;9.954;2023-04-09T01:45:55;30.67;;;17.33;;
11998;SDS011;40817;51.520;9.954;2023-04-09T01:48:25;30.85;;;17.25;;
11998;SDS011;40817;51.520;9.954;2023-04-09T01:50:54;32.60;;;17.42;;
11998;SDS011;40817;51.520;9.954;2023-04-09T01:53:23;30.42;;;17.30;;
11998;SDS011;40817;51.520;9.954;2023-04-09T01:55:52;30.77;;;17.25;;
11998;SDS011;40817;51.520;9.954;2023-04-09T01:58:21;29.33;;;16.42;;
11998;SDS011;40817;51.520;9.954;2023-04-09T02:00:53;31.65;;;17.88;;
11998;SDS011;40817;51.520;9.954;2023-04-09T02:03:31;31.67;;;19.13;;
11998;SDS011;40817;51.520;9.954;2023-04-09T02:06:06;35.58;;;18.77;;
11998;SDS011;40817;51.520;9.954;2023-04-09T02:08:41;37.83;;;19.38;;
11998;SDS011;40817;51.520;9.954;2023-04-09T02:11:13;36.63;;;20.95;;
11998;SDS011;40817;51.520;9.954;2023-04-09T02:13:41;35.22;;;19.63;;
11998;SDS011;40817;51.520;9.954;2023-04-09T02:16:12;33.88;;;19.08;;
11998;SDS011;40817;51.520;9.954;2023-04-09T02:18:41;35.28;;;20.52;;
11998;SDS011;40817;51.520;9.954;2023-04-09T02:21:08;36.90;;;21.40;;
11998;SDS011;40817;51.520;9.954;2023-04-09T02:23:38;39.97;;;22.60;;
11998;SDS011;40817;51.520;9.954;2023-04-09T02:26:05;38.65;;;22.98;;
11998;SDS011;40817;51.520;9.954;2023-04-09T02:28:33;45.88;;;24.85;;
11998;SDS011;40817;51.520;9.954;2023-04-09T02:31:00;45.13;;;23.83;;
11998;SDS011;40817;51.520;9.954;2023-04-09T02:33:29;40.33;;;23.73;;
11998;SDS011;40817;51.520;9.954;2023-04-09T02:35:57;40.42;;;22.23;;
11998;SDS011;40817;51.520;9.954;2023-04-09T02:38:24;43.22;;;24.98;;
11998;SDS011;40817;51.520;9.954;2023-04-09T02:40:52;40.97;;;22.25;;
11998;SDS011;40817;51.520;9.954;2023-04-09T02:43:19;37.35;;;21.75;;
11998;SDS011;40817;51.520;9.954;2023-04-09T02:45:47;35.72;;;20.17;;
11998;SDS011;40817;51.520;9.954;2023-04-09T02:48:15;37.55;;;21.63;;
11998;SDS011;40817;51.520;9.954;2023-04-09T02:50:44;36.40;;;21.02;;
11998;SDS011;40817;51.520;9.954;2023-04-09T02:53:12;37.90;;;21.40;;
11998;SDS011;40817;51.520;9.954;2023-04-09T02:55:39;39.97;;;21.92;;
11998;SDS011;40817;51.520;9.954;2023-04-09T02:58:07;39.45;;;22.35;;
11998;SDS011;40817;51.520;9.954;2023-04-09T03:00:35;40.33;;;22.25;;
11998;SDS011;40817;51.520;9.954;2023-04-09T03:03:04;37.75;;;21.05;;
11998;SDS011;40817;51.520;9.954;2023-04-09T03:05:52;37.75;;;22.20;;
11998;SDS011;40817;51.520;9.954;2023-04-09T03:08:40;39.33;;;20.88;;
11998;SDS011;40817;51.520;9.954;2023-04-09T03:11:07;38.42;;;21.92;;
11998;SDS011;40817;51.520;9.954;2023-04-09T03:13:35;36.08;;;20.02;;
11998;SDS011;40817;51.520;9.954;2023-04-09T03:16:02;36.67;;;21.55;;
11998;SDS011;40817;51.520;9.954;2023-04-09T03:18:31;31.42;;;18.63;;
11998;SDS011;40817;51.520;9.954;2023-04-09T03:21:00;39.67;;;22.77;;
11998;SDS011;40817;51.520;9.954;2023-04-09T03:23:32;39.88;;;22.48;;
11998;SDS011;40817;51.520;9.954;2023-04-09T03:26:00;40.40;;;23.40;;
11998;SDS011;40817;51.520;9.954;2023-04-09T03:28:29;41.55;;;22.15;;
11998;SDS011;40817;51.520;9.954;2023-04-09T03:30:56;37.78;;;21.30;;
11998;SDS011;40817;51.520;9.954;2023-04-09T03:33:24;34.38;;;20.05;;
11998;SDS011;40817;51.520;9.954;2023-04-09T03:35:52;32.95;;;20.55;;
11998;SDS011;40817;51.520;9.954;2023-04-09T03:38:21;36.40;;;20.80;;
11998;SDS011;40817;51.520;9.954;2023-04-09T03:40:48;37.42;;;20.17;;
11998;SDS011;40817;51.520;9.954;2023-04-09T03:43:16;33.45;;;19.42;;
11998;SDS011;40817;51.520;9.954;2023-04-09T03:45:43;38.45;;;20.77;;
11998;SDS011;40817;51.520;9.954;2023-04-09T03:48:11;35.75;;;19.90;;
11998;SDS011;40817;51.520;9.954;2023-04-09T03:50:38;37.10;;;20.13;;
11998;SDS011;40817;51.520;9.954;2023-04-09T03:53:07;37.08;;;20.77;;
11998;SDS011;40817;51.520;9.954;2023-04-09T03:55:36;34.42;;;19.88;;
11998;SDS011;40817;51.520;9.954;2023-04-09T03:58:04;32.05;;;19.55;;
11998;SDS011;40817;51.520;9.954;2023-04-09T04:00:32;35.83;;;20.13;;
11998;SDS011;40817;51.520;9.954;2023-04-09T04:03:00;33.80;;;19.35;;
11998;SDS011;40817;51.520;9.954;2023-04-09T04:05:27;34.28;;;18.98;;
11998;SDS011;40817;51.520;9.954;2023-04-09T04:07:55;35.42;;;20.33;;
11998;SDS011;40817;51.520;9.954;2023-04-09T04:10:23;37.00;;;21.25;;
11998;SDS011;40817;51.520;9.954;2023-04-09T04:12:52;38.05;;;22.20;;
11998;SDS011;40817;51.520;9.954;2023-04-09T04:15:19;37.28;;;22.10;;
11998;SDS011;40817;51.520;9.954;2023-04-09T04:17:47;38.65;;;22.15;;
11998;SDS011;40817;51.520;9.954;2023-04-09T04:20:14;38.28;;;23.13;;
11998;SDS011;40817;51.520;9.954;2023-04-09T04:22:42;41.72;;;24.27;;
11998;SDS011;40817;51.520;9.954;2023-04-09T04:25:10;39.03;;;22.88;;
11998;SDS011;40817;51.520;9.954;2023-04-09T04:27:40;40.38;;;22.67;;
11998;SDS011;40817;51.520;9.954;2023-04-09T04:30:09;43.97;;;23.60;;
11998;SDS011;40817;51.520;9.954;2023-04-09T04:32:37;37.20;;;22.10;;
11998;SDS011;40817;51.520;9.954;2023-04-09T04:35:05;40.42;;;23.17;;
11998;SDS011;40817;51.520;9.954;2023-04-09T04:37:34;40.83;;;24.88;;
11998;SDS011;40817;51.520;9.954;2023-04-09T04:40:01;42.20;;;24.00;;
11998;SDS011;40817;51.520;9.954;2023-04-09T04:42:29;35.95;;;22.77;;
11998;SDS011;40817;51.520;9.954;2023-04-09T04:44:57;36.30;;;21.92;;
11998;SDS011;40817;51.520;9.954;2023-04-09T04:47:26;39.08;;;22.23;;
11998;SDS011;40817;51.520;9.954;2023-04-09T04:49:54;39.45;;;23.65;;
11998;SDS011;40817;51.520;9.954;2023-04-09T04:52:22;39.83;;;22.75;;
11998;SDS011;40817;51.520;9.954;2023-04-09T04:54:49;38.08;;;24.23;;
11998;SDS011;40817;51.520;9.954;2023-04-09T04:57:17;39.83;;;23.45;;
11998;SDS011;40817;51.520;9.954;2023-04-09T04:59:44;45.67;;;24.58;;
11998;SDS011;40817;51.520;9.954;2023-04-09T05:02:12;42.95;;;25.00;;
11998;SDS011;40817;51.520;9.954;2023-04-09T05:04:41;39.85;;;23.73;;
11998;SDS011;40817;51.520;9.954;2023-04-09T05:07:08;45.60;;;25.25;;
11998;SDS011;40817;51.520;9.954;2023-04-09T05:09:36;39.05;;;23.67;;
11998;SDS011;40817;51.520;9.954;2023-04-09T05:12:03;42.28;;;23.15;;
11998;SDS011;40817;51.520;9.954;2023-04-09T05:14:31;42.50;;;23.98;;
11998;SDS011;40817;51.520;9.954;2023-04-09T05:16:59;42.35;;;22.90;;
11998;SDS011;40817;51.520;9.954;2023-04-09T05:19:27;40.20;;;22.33;;
11998;SDS011;40817;51.520;9.954;2023-04-09T05:21:56;39.42;;;22.42;;
11998;SDS011;40817;51.520;9.954;2023-04-09T05:24:23;38.53;;;23.02;;
11998;SDS011;40817;51.520;9.954;2023-04-09T05:26:53;41.47;;;22.80;;
11998;SDS011;40817;51.520;9.954;2023-04-09T05:29:20;43.17;;;23.85;;
11998;SDS011;40817;51.520;9.954;2023-04-09T05:31:48;40.42;;;23.75;;
11998;SDS011;40817;51.520;9.954;2023-04-09T05:34:15;38.42;;;23.45;;
11998;SDS011;40817;51.520;9.954;2023-04-09T05:36:43;41.35;;;22.60;;
11998;SDS011;40817;51.520;9.954;2023-04-09T05:39:12;43.28;;;24.05;;
11998;SDS011;40817;51.520;9.954;2023-04-09T05:41:40;42.38;;;23.58;;
11998;SDS011;40817;51.520;9.954;2023-04-09T05:44:09;41.38;;;23.02;;
11998;SDS011;40817;51.520;9.954;2023-04-09T05:46:37;42.88;;;23.67;;
11998;SDS011;40817;51.520;9.954;2023-04-09T05:49:08;40.78;;;23.92;;
11998;SDS011;40817;51.520;9.954;2023-04-09T05:51:36;37.35;;;23.10;;
11998;SDS011;40817;51.520;9.954;2023-04-09T05:54:04;40.25;;;23.38;;
11998;SDS011;40817;51.520;9.954;2023-04-09T05:56:33;39.25;;;24.05;;
11998;SDS011;40817;51.520;9.954;2023-04-09T05:59:00;39.95;;;23.75;;
11998;SDS011;40817;51.520;9.954;2023-04-09T06:01:28;38.75;;;23.52;;
11998;SDS011;40817;51.520;9.954;2023-04-09T06:03:55;44.35;;;24.98;;
11998;SDS011;40817;51.520;9.954;2023-04-09T06:06:23;37.05;;;23.13;;
11998;SDS011;40817;51.520;9.954;2023-04-09T06:08:51;37.42;;;23.23;;
11998;SDS011;40817;51.520;9.954;2023-04-09T06:11:18;41.30;;;23.98;;
11998;SDS011;40817;51.520;9.954;2023-04-09T06:13:48;38.90;;;23.70;;
11998;SDS011;40817;51.520;9.954;2023-04-09T06:16:16;41.67;;;24.73;;
11998;SDS011;40817;51.520;9.954;2023-04-09T06:18:45;41.45;;;23.35;;
11998;SDS011;40817;51.520;9.954;2023-04-09T06:21:14;42.13;;;25.02;;
11998;SDS011;40817;51.520;9.954;2023-04-09T06:23:41;46.92;;;25.90;;
11998;SDS011;40817;51.520;9.954;2023-04-09T06:26:09;39.78;;;25.60;;
11998;SDS011;40817;51.520;9.954;2023-04-09T06:28:37;43.53;;;26.63;;
11998;SDS011;40817;51.520;9.954;2023-04-09T06:31:05;43.35;;;24.55;;
11998;SDS011;40817;51.520;9.954;2023-04-09T06:33:33;44.03;;;25.65;;
11998;SDS011;40817;51.520;9.954;2023-04-09T06:36:01;40.50;;;25.02;;
11998;SDS011;40817;51.520;9.954;2023-04-09T06:38:28;43.30;;;24.95;;
11998;SDS011;40817;51.520;9.954;2023-04-09T06:40:56;39.25;;;23.58;;
11998;SDS011;40817;51.520;9.954;2023-04-09T06:43:24;43.13;;;24.42;;
11998;SDS011;40817;51.520;9.954;2023-04-09T06:45:51;42.45;;;24.52;;
11998;SDS011;40817;51.520;9.954;2023-04-09T06:48:20;41.50;;;26.10;;
11998;SDS011;40817;51.520;9.954;2023-04-09T06:50:48;44.22;;;26.00;;
11998;SDS011;40817;51.520;9.954;2023-04-09T06:53:15;40.22;;;24.02;;
11998;SDS011;40817;51.520;9.954;2023-04-09T06:55:43;39.13;;;24.15;;
11998;SDS011;40817;51.520;9.954;2023-04-09T06:58:11;38.38;;;24.42;;
11998;SDS011;40817;51.520;9.954;2023-04-09T07:00:38;40.17;;;25.33;;
11998;SDS011;40817;51.520;9.954;2023-04-09T07:03:06;41.78;;;25.63;;
11998;SDS011;40817;51.520;9.954;2023-04-09T07:05:35;40.28;;;24.30;;
11998;SDS011;40817;51.520;9.954;2023-04-09T07:08:03;43.33;;;25.25;;
11998;SDS011;40817;51.520;9.954;2023-04-09T07:10:31;40.70;;;25.10;;
11998;SDS011;40817;51.520;9.954;2023-04-09T07:12:59;44.97;;;25.88;;
11998;SDS011;40817;51.520;9.954;2023-04-09T07:15:27;43.88;;;26.20;;
11998;SDS011;40817;51.520;9.954;2023-04-09T07:17:55;44.33;;;26.02;;
11998;SDS011;40817;51.520;9.954;2023-04-09T07:20:22;42.28;;;25.80;;
11998;SDS011;40817;51.520;9.954;2023-04-09T07:22:51;40.78;;;26.58;;
11998;SDS011;40817;51.520;9.954;2023-04-09T07:25:19;43.38;;;26.20;;
11998;SDS011;40817;51.520;9.954;2023-04-09T07:27:47;48.92;;;26.90;;
11998;SDS011;40817;51.520;9.954;2023-04-09T07:30:15;41.35;;;25.70;;
11998;SDS011;40817;51.520;9.954;2023-04-09T07:32:43;43.22;;;26.45;;
11998;SDS011;40817;51.520;9.954;2023-04-09T07:35:11;41.60;;;25.95;;
11998;SDS011;40817;51.520;9.954;2023-04-09T07:37:39;41.97;;;25.75;;
11998;SDS011;40817;51.520;9.954;2023-04-09T07:40:08;41.03;;;26.10;;
11998;SDS011;40817;51.520;9.954;2023-04-09T07:42:36;40.20;;;25.52;;
11998;SDS011;40817;51.520;9.954;2023-04-09T07:45:05;39.33;;;25.38;;
11998;SDS011;40817;51.520;9.954;2023-04-09T07:47:34;39.72;;;25.20;;
11998;SDS011;40817;51.520;9.954;2023-04-09T07:50:02;41.35;;;24.98;;
11998;SDS011;40817;51.520;9.954;2023-04-09T07:52:30;39.88;;;24.67;;
11998;SDS011;40817;51.520;9.954;2023-04-09T07:54:58;40.63;;;25.35;;
11998;SDS011;40817;51.520;9.954;2023-04-09T07:57:28;42.03;;;26.27;;
11998;SDS011;40817;51.520;9.954;2023-04-09T07:59:57;44.22;;;26.02;;
11998;SDS011;40817;51.520;9.954;2023-04-09T08:02:25;39.92;;;24.33;;
11998;SDS011;40817;51.520;9.954;2023-04-09T08:04:53;37.70;;;24.58;;
11998;SDS011;40817;51.520;9.954;2023-04-09T08:07:20;41.38;;;25.00;;
11998;SDS011;40817;51.520;9.954;2023-04-09T08:09:48;40.15;;;24.25;;
11998;SDS011;40817;51.520;9.954;2023-04-09T08:12:16;35.97;;;23.30;;
11998;SDS011;40817;51.520;9.954;2023-04-09T08:14:45;38.08;;;25.02;;
11998;SDS011;40817;51.520;9.954;2023-04-09T08:17:13;37.78;;;24.00;;
11998;SDS011;40817;51.520;9.954;2023-04-09T08:19:40;38.90;;;24.55;;
11998;SDS011;40817;51.520;9.954;2023-04-09T08:22:08;39.78;;;24.77;;
11998;SDS011;40817;51.520;9.954;2023-04-09T08:24:35;41.95;;;26.35;;
11998;SDS011;40817;51.520;9.954;2023-04-09T08:27:04;42.80;;;26.75;;
11998;SDS011;40817;51.520;9.954;2023-04-09T08:29:32;42.22;;;26.33;;
11998;SDS011;40817;51.520;9.954;2023-04-09T08:32:01;39.00;;;25.45;;
11998;SDS011;40817;51.520;9.954;2023-04-09T08:34:29;38.17;;;25.15;;
11998;SDS011;40817;51.520;9.954;2023-04-09T08:36:57;42.17;;;26.15;;
11998;SDS011;40817;51.520;9.954;2023-04-09T08:39:25;39.47;;;24.40;;
11998;SDS011;40817;51.520;9.954;2023-04-09T08:41:53;39.85;;;24.67;;
11998;SDS011;40817;51.520;9.954;2023-04-09T08:44:26;38.35;;;23.70;;
11998;SDS011;40817;51.520;9.954;2023-04-09T08:46:55;40.25;;;25.15;;
11998;SDS011;40817;51.520;9.954;2023-04-09T08:49:24;40.88;;;25.70;;
11998;SDS011;40817;51.520;9.954;2023-04-09T08:51:52;37.15;;;23.92;;
11998;SDS011;40817;51.520;9.954;2023-04-09T08:54:19;37.72;;;23.95;;
11998;SDS011;40817;51.520;9.954;2023-04-09T08:56:48;35.65;;;22.02;;
11998;SDS011;40817;51.520;9.954;2023-04-09T08:59:15;39.85;;;24.05;;
11998;SDS011;40817;51.520;9.954;2023-04-09T09:01:44;37.53;;;23.38;;
11998;SDS011;40817;51.520;9.954;2023-04-09T09:04:17;42.75;;;24.30;;
11998;SDS011;40817;51.520;9.954;2023-04-09T09:06:46;36.88;;;23.38;;
11998;SDS011;40817;51.520;9.954;2023-04-09T09:09:14;36.95;;;23.75;;
11998;SDS011;40817;51.520;9.954;2023-04-09T09:11:43;36.10;;;23.33;;
11998;SDS011;40817;51.520;9.954;2023-04-09T09:14:15;38.10;;;23.23;;
11998;SDS011;40817;51.520;9.954;2023-04-09T09:19:32;38.78;;;23.73;;
11998;SDS011;40817;51.520;9.954;2023-04-09T09:22:02;37.25;;;23.42;;
11998;SDS011;40817;51.520;9.954;2023-04-09T09:24:32;34.13;;;22.40;;
11998;SDS011;40817;51.520;9.954;2023-04-09T09:27:11;36.60;;;23.48;;
11998;SDS011;40817;51.520;9.954;2023-04-09T09:30:06;35.45;;;22.58;;
11998;SDS011;40817;51.520;9.954;2023-04-09T09:32:45;37.67;;;23.27;;
11998;SDS011;40817;51.520;9.954;2023-04-09T09:35:14;37.15;;;24.30;;
11998;SDS011;40817;51.520;9.954;2023-04-09T09:37:43;38.97;;;22.98;;
11998;SDS011;40817;51.520;9.954;2023-04-09T09:40:11;34.10;;;22.45;;
11998;SDS011;40817;51.520;9.954;2023-04-09T09:42:54;38.05;;;22.77;;
11998;SDS011;40817;51.520;9.954;2023-04-09T09:45:22;34.20;;;22.02;;
11998;SDS011;40817;51.520;9.954;2023-04-09T09:47:51;34.47;;;21.98;;
11998;SDS011;40817;51.520;9.954;2023-04-09T09:50:19;31.65;;;20.60;;
11998;SDS011;40817;51.520;9.954;2023-04-09T09:52:53;31.67;;;20.45;;
11998;SDS011;40817;51.520;9.954;2023-04-09T09:55:30;35.03;;;21.38;;
11998;SDS011;40817;51.520;9.954;2023-04-09T09:58:00;31.30;;;19.88;;
11998;SDS011;40817;51.520;9.954;2023-04-09T10:00:36;32.95;;;21.38;;
11998;SDS011;40817;51.520;9.954;2023-04-09T10:03:07;36.20;;;20.83;;
11998;SDS011;40817;51.520;9.954;2023-04-09T10:05:41;30.80;;;19.95;;
11998;SDS011;40817;51.520;9.954;2023-04-09T10:08:11;30.52;;;19.55;;
11998;SDS011;40817;51.520;9.954;2023-04-09T10:10:39;27.13;;;18.30;;
11998;SDS011;40817;51.520;9.954;2023-04-09T10:13:08;28.35;;;19.02;;
11998;SDS011;40817;51.520;9.954;2023-04-09T10:15:41;29.20;;;19.27;;
11998;SDS011;40817;51.520;9.954;2023-04-09T10:18:10;25.63;;;16.63;;
11998;SDS011;40817;51.520;9.954;2023-04-09T10:20:39;30.98;;;18.00;;
11998;SDS011;40817;51.520;9.954;2023-04-09T10:23:20;26.05;;;17.73;;
11998;SDS011;40817;51.520;9.954;2023-04-09T10:26:02;25.02;;;16.48;;
11998;SDS011;40817;51.520;9.954;2023-04-09T10:28:31;25.63;;;17.75;;
11998;SDS011;40817;51.520;9.954;2023-04-09T10:30:59;26.23;;;16.85;;
11998;SDS011;40817;51.520;9.954;2023-04-09T10:33:27;24.15;;;16.08;;
11998;SDS011;40817;51.520;9.954;2023-04-09T10:35:58;25.75;;;16.63;;
11998;SDS011;40817;51.520;9.954;2023-04-09T10:38:33;22.40;;;15.45;;
11998;SDS011;40817;51.520;9.954;2023-04-09T10:41:06;24.90;;;15.95;;
11998;SDS011;40817;51.520;9.954;2023-04-09T10:43:41;23.25;;;16.23;;
11998;SDS011;40817;51.520;9.954;2023-04-09T10:46:25;23.50;;;15.52;;
11998;SDS011;40817;51.520;9.954;2023-04-09T10:51:46;23.47;;;15.40;;
11998;SDS011;40817;51.520;9.954;2023-04-09T10:54:38;23.63;;;15.43;;
11998;SDS011;40817;51.520;9.954;2023-04-09T10:57:12;23.60;;;15.57;;
11998;SDS011;40817;51.520;9.954;2023-04-09T10:59:47;26.98;;;17.35;;
11998;SDS011;40817;51.520;9.954;2023-04-09T11:02:30;24.80;;;16.73;;
11998;SDS011;40817;51.520;9.954;2023-04-09T11:05:47;22.95;;;15.52;;
11998;SDS011;40817;51.520;9.954;2023-04-09T11:08:21;29.02;;;17.27;;
11998;SDS011;40817;51.520;9.954;2023-04-09T11:10:50;22.70;;;15.63;;
11998;SDS011;40817;51.520;9.954;2023-04-09T11:13:22;23.13;;;15.77;;
11998;SDS011;40817;51.520;9.954;2023-04-09T11:15:50;24.58;;;16.33;;
11998;SDS011;40817;51.520;9.954;2023-04-09T11:18:21;24.73;;;15.90;;
11998;SDS011;40817;51.520;9.954;2023-04-09T11:20:53;25.48;;;16.63;;
11998;SDS011;40817;51.520;9.954;2023-04-09T11:23:22;25.67;;;17.25;;
11998;SDS011;40817;51.520;9.954;2023-04-09T11:25:52;21.77;;;14.55;;
11998;SDS011;40817;51.520;9.954;2023-04-09T11:28:21;22.38;;;16.30;;
11998;SDS011;40817;51.520;9.954;2023-04-09T11:30:50;26.65;;;16.33;;
11998;SDS011;40817;51.520;9.954;2023-04-09T11:33:18;20.88;;;14.93;;
11998;SDS011;40817;51.520;9.954;2023-04-09T11:35:46;22.40;;;15.98;;
11998;SDS011;40817;51.520;9.954;2023-04-09T11:38:14;22.67;;;15.68;;
11998;SDS011;40817;51.520;9.954;2023-04-09T11:40:42;24.20;;;15.55;;
11998;SDS011;40817;51.520;9.954;2023-04-09T11:43:14;21.90;;;15.48;;
11998;SDS011;40817;51.520;9.954;2023-04-09T11:45:42;22.35;;;15.63;;
11998;SDS011;40817;51.520;9.954;2023-04-09T11:48:11;24.33;;;15.80;;
11998;SDS011;40817;51.520;9.954;2023-04-09T11:50:40;22.60;;;15.50;;
11998;SDS011;40817;51.520;9.954;2023-04-09T11:53:15;21.40;;;15.15;;
11998;SDS011;40817;51.520;9.954;2023-04-09T11:55:46;20.08;;;13.85;;
11998;SDS011;40817;51.520;9.954;2023-04-09T11:58:19;18.30;;;13.43;;
11998;SDS011;40817;51.520;9.954;2023-04-09T12:00:51;19.55;;;13.60;;
11998;SDS011;40817;51.520;9.954;2023-04-09T12:03:26;20.08;;;14.63;;
11998;SDS011;40817;51.520;9.954;2023-04-09T12:05:58;19.90;;;13.55;;
11998;SDS011;40817;51.520;9.954;2023-04-09T12:08:27;19.80;;;13.27;;
11998;SDS011;40817;51.520;9.954;2023-04-09T12:10:55;19.10;;;14.00;;
11998;SDS011;40817;51.520;9.954;2023-04-09T12:16:01;18.58;;;13.95;;
11998;SDS011;40817;51.520;9.954;2023-04-09T12:18:30;19.60;;;14.68;;
11998;SDS011;40817;51.520;9.954;2023-04-09T12:21:01;17.30;;;13.07;;
11998;SDS011;40817;51.520;9.954;2023-04-09T12:23:29;17.95;;;13.27;;
11998;SDS011;40817;51.520;9.954;2023-04-09T12:25:57;18.60;;;13.20;;
11998;SDS011;40817;51.520;9.954;2023-04-09T12:28:25;18.58;;;13.05;;
11998;SDS011;40817;51.520;9.954;2023-04-09T12:30:55;16.40;;;12.48;;
11998;SDS011;40817;51.520;9.954;2023-04-09T12:33:24;18.48;;;12.90;;
11998;SDS011;40817;51.520;9.954;2023-04-09T12:35:51;18.05;;;12.95;;
11998;SDS011;40817;51.520;9.954;2023-04-09T12:38:20;17.33;;;12.50;;
11998;SDS011;40817;51.520;9.954;2023-04-09T12:40:51;16.50;;;12.00;;
11998;SDS011;40817;51.520;9.954;2023-04-09T12:43:19;16.13;;;11.30;;
11998;SDS011;40817;51.520;9.954;2023-04-09T12:45:47;16.42;;;11.23;;
11998;SDS011;40817;51.520;9.954;2023-04-09T12:48:16;15.55;;;11.40;;
11998;SDS011;40817;51.520;9.954;2023-04-09T12:50:43;14.57;;;10.85;;
11998;SDS011;40817;51.520;9.954;2023-04-09T12:53:11;15.25;;;10.63;;
11998;SDS011;40817;51.520;9.954;2023-04-09T12:55:38;16.15;;;10.70;;
11998;SDS011;40817;51.520;9.954;2023-04-09T12:58:06;15.82;;;11.20;;
11998;SDS011;40817;51.520;9.954;2023-04-09T13:00:33;16.17;;;10.77;;
11998;SDS011;40817;51.520;9.954;2023-04-09T13:03:01;15.00;;;11.20;;
11998;SDS011;40817;51.520;9.954;2023-04-09T13:05:29;14.35;;;10.35;;
11998;SDS011;40817;51.520;9.954;2023-04-09T13:07:59;15.25;;;11.13;;
11998;SDS011;40817;51.520;9.954;2023-04-09T13:10:27;15.02;;;9.98;;
11998;SDS011;40817;51.520;9.954;2023-04-09T13:12:56;14.98;;;11.02;;
11998;SDS011;40817;51.520;9.954;2023-04-09T13:15:23;18.90;;;11.50;;
11998;SDS011;40817;51.520;9.954;2023-04-09T13:17:51;14.18;;;9.98;;
11998;SDS011;40817;51.520;9.954;2023-04-09T13:20:19;15.30;;;10.63;;
11998;SDS011;40817;51.520;9.954;2023-04-09T13:22:48;14.63;;;10.57;;
11998;SDS011;40817;51.520;9.954;2023-04-09T13:25:16;14.18;;;11.00;;
11998;SDS011;40817;51.520;9.954;2023-04-09T13:27:43;14.02;;;10.73;;
11998;SDS011;40817;51.520;9.954;2023-04-09T13:30:11;15.02;;;10.93;;
11998;SDS011;40817;51.520;9.954;2023-04-09T13:32:38;14.95;;;10.55;;
11998;SDS011;40817;51.520;9.954;2023-04-09T13:35:06;14.70;;;10.93;;
11998;SDS011;40817;51.520;9.954;2023-04-09T13:37:35;13.80;;;10.35;;
11998;SDS011;40817;51.520;9.954;2023-04-09T13:40:05;16.42;;;10.88;;
11998;SDS011;40817;51.520;9.954;2023-04-09T13:42:34;15.52;;;11.07;;
11998;SDS011;40817;51.520;9.954;2023-04-09T13:45:02;14.35;;;10.50;;
11998;SDS011;40817;51.520;9.954;2023-04-09T13:47:31;14.45;;;10.40;;
11998;SDS011;40817;51.520;9.954;2023-04-09T13:49:58;13.40;;;10.18;;
11998;SDS011;40817;51.520;9.954;2023-04-09T13:52:26;13.80;;;10.55;;
11998;SDS011;40817;51.520;9.954;2023-04-09T13:54:54;12.98;;;10.00;;
11998;SDS011;40817;51.520;9.954;2023-04-09T13:57:23;12.60;;;9.45;;
11998;SDS011;40817;51.520;9.954;2023-04-09T13:59:51;12.90;;;10.85;;
11998;SDS011;40817;51.520;9.954;2023-04-09T14:02:19;12.57;;;9.65;;
11998;SDS011;40817;51.520;9.954;2023-04-09T14:04:46;14.77;;;10.20;;
11998;SDS011;40817;51.520;9.954;2023-04-09T14:07:13;13.60;;;10.55;;
11998;SDS011;40817;51.520;9.954;2023-04-09T14:09:41;12.23;;;9.35;;
11998;SDS011;40817;51.520;9.954;2023-04-09T14:12:08;12.77;;;10.20;;
11998;SDS011;40817;51.520;9.954;2023-04-09T14:14:37;11.90;;;8.52;;
11998;SDS011;40817;51.520;9.954;2023-04-09T14:17:04;11.23;;;8.77;;
11998;SDS011;40817;51.520;9.954;2023-04-09T14:19:32;12.18;;;9.52;;
11998;SDS011;40817;51.520;9.954;2023-04-09T14:22:00;11.57;;;9.73;;
11998;SDS011;40817;51.520;9.954;2023-04-09T14:24:27;11.73;;;9.35;;
11998;SDS011;40817;51.520;9.954;2023-04-09T14:26:54;10.88;;;8.93;;
11998;SDS011;40817;51.520;9.954;2023-04-09T14:29:22;12.65;;;9.25;;
11998;SDS011;40817;51.520;9.954;2023-04-09T14:31:51;11.27;;;8.73;;
11998;SDS011;40817;51.520;9.954;2023-04-09T14:34:18;10.75;;;8.43;;
11998;SDS011;40817;51.520;9.954;2023-04-09T14:36:46;10.98;;;8.57;;
11998;SDS011;40817;51.520;9.954;2023-04-09T14:39:14;13.27;;;9.63;;
11998;SDS011;40817;51.520;9.954;2023-04-09T14:41:42;11.65;;;9.18;;
11998;SDS011;40817;51.520;9.954;2023-04-09T14:44:09;11.10;;;8.52;;
11998;SDS011;40817;51.520;9.954;2023-04-09T14:46:36;10.05;;;8.73;;
11998;SDS011;40817;51.520;9.954;2023-04-09T14:49:06;10.70;;;8.57;;